Ana Sayfa
METAR-TAF:

METAR-TAF

Havaalanları :

Şam, Suriye

Şam Havalimanı

Enlem: 33-25N, Boylam: 036-31E, yükseklik: 608 m

Güncel hava durumu gözlemi

Rapor saat 06:00 UTC de 11 dakika önce yapıldı.
Rüzgar batı/kuzeybatıdan 2 kt
Sıcaklık 0°C
Nem 93%
Basınç 1024 hPa
Görüş mesafesi: 0100 m
sis

METAR: OSDI 210600Z 30002KT 0100 R23/0100 FG 00/M01 Q1024

Saat: 08:11 (06:11 UTC)

Tahmin

Ayın 21'si saat 06 UTC'den ayın 22'si saat 12 UTC'ye kadar geçerli Tahmin
Rüzgar değişken yönden 3 kt
Görüş mesafesi: 0200 m
700 ft yükseklikte parçalı bulutlu
sis
Dönüşüyor
ayın 21'si saat 08 UTC'den ayın 21'si saat 10 UTC'ye kadar
Rüzgar değişken yönden 3 kt
Görüş mesafesi: 4000 m
Pus
Geçici
ayın 21'si saat 12 UTC'den ayın 21'si saat 18 UTC'ye kadar
Rüzgar güneybatıdan 10 kt
Görüş mesafesi: 8000 m
3000 ft yükseklikte az bulutlu

TAF: OSDI 2106/2212 VRB03KT 0200 FG SCT007 BECMG 2108/2110 VRB03KT 4000 BR TEMPO 2112/2118 22010KT 8000 FEW030

4.000'den fazla havaalanı için hava durumu gözlemleri ve tahminleri (METAR ve TAF raporları).

Kullanılabilir istasyonlar harita üzerinde sarı ve kırmızı noktalarla gösterilir.

İstasyonun adını görmek için fareyi noktanın üzerinde gezdirin.

Sonrasında hava gözlem ve tahminlerini görmek için tıklayın.

Haritayı değiştirmek için: yaklaştırmak için siyah artı işaretli yeşil düğmeye ve uzaklaştırmak için de eksi işaretli düğmeye hızla tıklayın; bitişik haritalar için yeşil okları kullanın.


METAR-TAF: